sensor_id;sensor_type;location;lat;lon;timestamp;pressure;altitude;pressure_sealevel;temperature;humidity
75936;BME280;64614;32.062;34.834;2023-01-25T00:02:05;101345.25;;;22.59;46.45
75936;BME280;64614;32.062;34.834;2023-01-25T00:04:30;101351.56;;;22.60;46.18
75936;BME280;64614;32.062;34.834;2023-01-25T00:06:56;101348.53;;;22.61;45.98
75936;BME280;64614;32.062;34.834;2023-01-25T00:09:23;101339.78;;;22.59;45.75
75936;BME280;64614;32.062;34.834;2023-01-25T00:11:49;101337.88;;;22.60;45.97
75936;BME280;64614;32.062;34.834;2023-01-25T00:14:15;101331.56;;;22.59;46.13
75936;BME280;64614;32.062;34.834;2023-01-25T00:16:41;101327.50;;;22.57;46.02
75936;BME280;64614;32.062;34.834;2023-01-25T00:19:08;101324.47;;;22.58;45.99
75936;BME280;64614;32.062;34.834;2023-01-25T00:21:35;101322.34;;;22.55;45.59
75936;BME280;64614;32.062;34.834;2023-01-25T00:24:01;101319.88;;;22.53;45.61
75936;BME280;64614;32.062;34.834;2023-01-25T00:26:29;101310.56;;;22.54;45.61
75936;BME280;64614;32.062;34.834;2023-01-25T00:28:55;101318.78;;;22.54;45.43
75936;BME280;64614;32.062;34.834;2023-01-25T00:31:30;101317.13;;;22.53;45.48
75936;BME280;64614;32.062;34.834;2023-01-25T00:39:31;101311.16;;;22.51;45.84
75936;BME280;64614;32.062;34.834;2023-01-25T00:41:56;101315.50;;;22.52;45.94
75936;BME280;64614;32.062;34.834;2023-01-25T00:44:22;101305.69;;;22.51;45.40
75936;BME280;64614;32.062;34.834;2023-01-25T00:46:50;101309.22;;;22.52;45.72
75936;BME280;64614;32.062;34.834;2023-01-25T00:49:23;101300.50;;;22.50;45.40
75936;BME280;64614;32.062;34.834;2023-01-25T00:51:50;101302.97;;;22.51;45.86
75936;BME280;64614;32.062;34.834;2023-01-25T00:54:17;101304.88;;;22.51;45.78
75936;BME280;64614;32.062;34.834;2023-01-25T00:56:43;101301.59;;;22.49;45.51
75936;BME280;64614;32.062;34.834;2023-01-25T00:59:10;101296.97;;;22.49;45.88
75936;BME280;64614;32.062;34.834;2023-01-25T01:01:36;101302.44;;;22.49;46.17
75936;BME280;64614;32.062;34.834;2023-01-25T01:04:02;101293.69;;;22.47;45.69
75936;BME280;64614;32.062;34.834;2023-01-25T01:06:27;101295.63;;;22.47;45.96
75936;BME280;64614;32.062;34.834;2023-01-25T01:08:53;101295.09;;;22.45;45.60
75936;BME280;64614;32.062;34.834;2023-01-25T01:11:19;101295.91;;;22.45;45.82
75936;BME280;64614;32.062;34.834;2023-01-25T01:13:44;101287.13;;;22.48;45.34
75936;BME280;64614;32.062;34.834;2023-01-25T01:16:12;101293.16;;;22.45;45.77
75936;BME280;64614;32.062;34.834;2023-01-25T01:18:41;101291.53;;;22.44;45.33
75936;BME280;64614;32.062;34.834;2023-01-25T01:21:07;101291.84;;;22.43;45.45
75936;BME280;64614;32.062;34.834;2023-01-25T01:23:33;101286.38;;;22.43;45.62
75936;BME280;64614;32.062;34.834;2023-01-25T01:26:04;101293.34;;;22.30;45.41
75936;BME280;64614;32.062;34.834;2023-01-25T01:28:31;101297.19;;;22.29;45.53
75936;BME280;64614;32.062;34.834;2023-01-25T01:31:01;101281.09;;;22.27;45.69
75936;BME280;64614;32.062;34.834;2023-01-25T01:33:28;101296.41;;;22.28;45.60
75936;BME280;64614;32.062;34.834;2023-01-25T01:35:54;101287.34;;;22.28;45.63
75936;BME280;64614;32.062;34.834;2023-01-25T01:38:19;101293.94;;;22.27;45.59
75936;BME280;64614;32.062;34.834;2023-01-25T01:40:46;101286.78;;;22.31;45.66
75936;BME280;64614;32.062;34.834;2023-01-25T01:43:19;101285.16;;;22.30;46.05
75936;BME280;64614;32.062;34.834;2023-01-25T01:45:56;101283.22;;;22.30;45.37
75936;BME280;64614;32.062;34.834;2023-01-25T01:48:30;101287.34;;;22.28;45.98
75936;BME280;64614;32.062;34.834;2023-01-25T01:53:45;101289.00;;;22.29;45.29
75936;BME280;64614;32.062;34.834;2023-01-25T01:56:16;101285.16;;;22.30;45.35
75936;BME280;64614;32.062;34.834;2023-01-25T01:58:44;101285.72;;;22.27;45.71
75936;BME280;64614;32.062;34.834;2023-01-25T02:01:10;101286.03;;;22.25;45.49
75936;BME280;64614;32.062;34.834;2023-01-25T02:03:36;101286.59;;;22.22;45.47
75936;BME280;64614;32.062;34.834;2023-01-25T02:06:04;101279.75;;;22.25;45.21
75936;BME280;64614;32.062;34.834;2023-01-25T02:08:33;101283.59;;;22.23;45.26
75936;BME280;64614;32.062;34.834;2023-01-25T02:11:02;101278.94;;;22.24;45.41
75936;BME280;64614;32.062;34.834;2023-01-25T02:13:30;101280.34;;;22.21;45.61
75936;BME280;64614;32.062;34.834;2023-01-25T02:15:57;101290.47;;;22.21;45.63
75936;BME280;64614;32.062;34.834;2023-01-25T02:18:23;101286.09;;;22.20;46.10
75936;BME280;64614;32.062;34.834;2023-01-25T02:20:51;101291.28;;;22.21;45.37
75936;BME280;64614;32.062;34.834;2023-01-25T02:26:11;101282.53;;;22.19;45.50
75936;BME280;64614;32.062;34.834;2023-01-25T02:28:53;101282.19;;;22.26;45.39
75936;BME280;64614;32.062;34.834;2023-01-25T02:31:19;101287.66;;;22.26;45.38
75936;BME280;64614;32.062;34.834;2023-01-25T02:33:45;101280.78;;;22.29;45.58
75936;BME280;64614;32.062;34.834;2023-01-25T02:36:18;101294.75;;;22.27;45.16
75936;BME280;64614;32.062;34.834;2023-01-25T02:38:55;101290.69;;;22.25;45.17
75936;BME280;64614;32.062;34.834;2023-01-25T02:41:39;101287.44;;;22.22;45.08
75936;BME280;64614;32.062;34.834;2023-01-25T02:44:09;101289.66;;;22.20;44.99
75936;BME280;64614;32.062;34.834;2023-01-25T02:46:37;101280.34;;;22.21;44.78
75936;BME280;64614;32.062;34.834;2023-01-25T02:49:06;101275.81;;;22.12;44.98
75936;BME280;64614;32.062;34.834;2023-01-25T02:51:34;101283.72;;;22.13;45.42
75936;BME280;64614;32.062;34.834;2023-01-25T02:54:02;101282.66;;;22.09;45.06
75936;BME280;64614;32.062;34.834;2023-01-25T02:56:29;101281.28;;;22.12;45.58
75936;BME280;64614;32.062;34.834;2023-01-25T02:58:54;101281.06;;;22.08;45.80
75936;BME280;64614;32.062;34.834;2023-01-25T03:01:21;101285.72;;;22.07;45.84
75936;BME280;64614;32.062;34.834;2023-01-25T03:03:47;101293.34;;;22.11;45.45
75936;BME280;64614;32.062;34.834;2023-01-25T03:06:13;101292.00;;;22.08;45.79
75936;BME280;64614;32.062;34.834;2023-01-25T03:08:38;101305.91;;;22.12;46.07
75936;BME280;64614;32.062;34.834;2023-01-25T03:11:05;101299.84;;;22.15;46.14
75936;BME280;64614;32.062;34.834;2023-01-25T03:13:32;101299.03;;;22.14;46.48
75936;BME280;64614;32.062;34.834;2023-01-25T03:16:00;101305.59;;;22.13;46.49
75936;BME280;64614;32.062;34.834;2023-01-25T03:18:26;101309.97;;;22.14;46.28
75936;BME280;64614;32.062;34.834;2023-01-25T03:20:52;101305.09;;;22.11;46.34
75936;BME280;64614;32.062;34.834;2023-01-25T03:23:18;101305.09;;;22.11;46.13
75936;BME280;64614;32.062;34.834;2023-01-25T03:25:43;101302.94;;;22.08;46.40
75936;BME280;64614;32.062;34.834;2023-01-25T03:28:09;101310.25;;;22.13;46.83
75936;BME280;64614;32.062;34.834;2023-01-25T03:30:35;101309.22;;;22.09;46.51
75936;BME280;64614;32.062;34.834;2023-01-25T03:33:00;101312.97;;;22.13;46.58
75936;BME280;64614;32.062;34.834;2023-01-25T03:35:26;101313.06;;;22.07;46.66
75936;BME280;64614;32.062;34.834;2023-01-25T03:37:51;101305.69;;;22.08;46.76
75936;BME280;64614;32.062;34.834;2023-01-25T03:40:17;101308.66;;;22.12;46.64
75936;BME280;64614;32.062;34.834;2023-01-25T03:42:43;101308.41;;;22.08;46.84
75936;BME280;64614;32.062;34.834;2023-01-25T03:45:09;101309.78;;;22.05;46.94
75936;BME280;64614;32.062;34.834;2023-01-25T03:47:39;101315.50;;;22.09;46.75
75936;BME280;64614;32.062;34.834;2023-01-25T03:50:05;101308.69;;;22.06;46.81
75936;BME280;64614;32.062;34.834;2023-01-25T03:55:55;101313.38;;;22.06;46.52
75936;BME280;64614;32.062;34.834;2023-01-25T03:58:21;101308.66;;;22.12;46.69
75936;BME280;64614;32.062;34.834;2023-01-25T04:00:47;101315.44;;;22.14;46.76
75936;BME280;64614;32.062;34.834;2023-01-25T04:03:12;101307.38;;;22.04;46.76
75936;BME280;64614;32.062;34.834;2023-01-25T04:05:38;101316.09;;;22.06;46.88
75936;BME280;64614;32.062;34.834;2023-01-25T04:08:04;101314.47;;;22.05;46.67
75936;BME280;64614;32.062;34.834;2023-01-25T04:10:31;101316.09;;;22.06;46.86
75936;BME280;64614;32.062;34.834;2023-01-25T04:12:57;101316.09;;;22.06;46.94
75936;BME280;64614;32.062;34.834;2023-01-25T04:15:22;101318.31;;;22.04;46.99
75936;BME280;64614;32.062;34.834;2023-01-25T04:17:48;101315.91;;;21.97;44.14
75936;BME280;64614;32.062;34.834;2023-01-25T04:20:14;101322.31;;;20.44;42.93
75936;BME280;64614;32.062;34.834;2023-01-25T04:22:40;101330.81;;;20.32;42.52
75936;BME280;64614;32.062;34.834;2023-01-25T04:25:06;101328.78;;;19.93;43.04
75936;BME280;64614;32.062;34.834;2023-01-25T04:27:32;101328.50;;;19.94;43.21
75936;BME280;64614;32.062;34.834;2023-01-25T04:29:58;101329.06;;;20.57;43.45
75936;BME280;64614;32.062;34.834;2023-01-25T04:32:23;101319.19;;;21.11;44.01
75936;BME280;64614;32.062;34.834;2023-01-25T04:34:49;101322.22;;;21.39;43.93
75936;BME280;64614;32.062;34.834;2023-01-25T04:37:15;101325.44;;;21.46;44.02
75936;BME280;64614;32.062;34.834;2023-01-25T04:39:40;101324.00;;;21.59;44.15
75936;BME280;64614;32.062;34.834;2023-01-25T04:42:06;101320.91;;;21.66;44.50
75936;BME280;64614;32.062;34.834;2023-01-25T04:44:31;101325.56;;;21.65;45.72
75936;BME280;64614;32.062;34.834;2023-01-25T04:46:57;101330.56;;;21.58;44.84
75936;BME280;64614;32.062;34.834;2023-01-25T04:49:23;101326.97;;;21.57;44.23
75936;BME280;64614;32.062;34.834;2023-01-25T04:51:48;101342.28;;;21.58;43.95
75936;BME280;64614;32.062;34.834;2023-01-25T04:54:14;101333.53;;;21.56;43.24
75936;BME280;64614;32.062;34.834;2023-01-25T04:56:40;101338.47;;;21.59;43.22
75936;BME280;64614;32.062;34.834;2023-01-25T04:59:05;101333.75;;;21.65;42.94
75936;BME280;64614;32.062;34.834;2023-01-25T05:01:31;101344.38;;;21.72;42.97
75936;BME280;64614;32.062;34.834;2023-01-25T05:03:58;101339.75;;;21.67;42.48
75936;BME280;64614;32.062;34.834;2023-01-25T05:06:24;101333.66;;;21.75;42.55
75936;BME280;64614;32.062;34.834;2023-01-25T05:08:49;101334.69;;;21.80;42.27
75936;BME280;64614;32.062;34.834;2023-01-25T05:11:15;101337.16;;;21.81;42.09
75936;BME280;64614;32.062;34.834;2023-01-25T05:13:41;101337.63;;;21.88;41.81
75936;BME280;64614;32.062;34.834;2023-01-25T05:16:07;101336.47;;;21.95;41.92
75936;BME280;64614;32.062;34.834;2023-01-25T05:18:39;101336.69;;;21.98;41.89
75936;BME280;64614;32.062;34.834;2023-01-25T05:23:59;101341.59;;;22.01;41.53
75936;BME280;64614;32.062;34.834;2023-01-25T05:26:55;101338.84;;;22.01;41.69
75936;BME280;64614;32.062;34.834;2023-01-25T05:29:51;101343.34;;;22.16;41.46
75936;BME280;64614;32.062;34.834;2023-01-25T05:35:32;101334.75;;;22.23;41.34
75936;BME280;64614;32.062;34.834;2023-01-25T05:37:59;101339.72;;;22.21;41.19
75936;BME280;64614;32.062;34.834;2023-01-25T05:40:25;101347.31;;;22.24;40.81
75936;BME280;64614;32.062;34.834;2023-01-25T05:42:58;101344.53;;;22.29;40.80
75936;BME280;64614;32.062;34.834;2023-01-25T05:45:24;101352.16;;;22.32;41.19
75936;BME280;64614;32.062;34.834;2023-01-25T05:47:55;101337.72;;;22.27;40.82
75936;BME280;64614;32.062;34.834;2023-01-25T05:50:22;101351.34;;;22.32;41.06
75936;BME280;64614;32.062;34.834;2023-01-25T05:52:48;101355.09;;;22.36;40.99
75936;BME280;64614;32.062;34.834;2023-01-25T05:55:14;101350.06;;;22.24;40.97
75936;BME280;64614;32.062;34.834;2023-01-25T05:57:40;101363.00;;;22.43;40.67
75936;BME280;64614;32.062;34.834;2023-01-25T06:00:07;101366.50;;;22.48;40.77
75936;BME280;64614;32.062;34.834;2023-01-25T06:02:34;101375.09;;;22.61;40.36
75936;BME280;64614;32.062;34.834;2023-01-25T06:05:01;101366.94;;;22.56;40.74
75936;BME280;64614;32.062;34.834;2023-01-25T06:07:27;101375.03;;;22.66;40.35
75936;BME280;64614;32.062;34.834;2023-01-25T06:09:53;101378.16;;;22.78;40.47
75936;BME280;64614;32.062;34.834;2023-01-25T06:12:21;101380.72;;;22.89;40.43
75936;BME280;64614;32.062;34.834;2023-01-25T06:14:47;101387.00;;;23.08;40.63
75936;BME280;64614;32.062;34.834;2023-01-25T06:17:13;101385.91;;;23.09;41.02
75936;BME280;64614;32.062;34.834;2023-01-25T06:19:38;101391.00;;;23.16;41.06
75936;BME280;64614;32.062;34.834;2023-01-25T06:22:05;101386.78;;;23.24;40.72
75936;BME280;64614;32.062;34.834;2023-01-25T06:24:33;101396.44;;;23.40;40.74
75936;BME280;64614;32.062;34.834;2023-01-25T06:26:59;101388.16;;;23.59;40.64
75936;BME280;64614;32.062;34.834;2023-01-25T06:29:24;101386.34;;;23.69;40.22
75936;BME280;64614;32.062;34.834;2023-01-25T06:31:50;101391.50;;;23.70;38.84
75936;BME280;64614;32.062;34.834;2023-01-25T06:34:16;101394.53;;;23.55;38.77
75936;BME280;64614;32.062;34.834;2023-01-25T06:36:41;101392.78;;;23.59;38.63
75936;BME280;64614;32.062;34.834;2023-01-25T06:39:07;101391.00;;;23.68;38.62
75936;BME280;64614;32.062;34.834;2023-01-25T06:41:33;101400.38;;;23.81;38.60
75936;BME280;64614;32.062;34.834;2023-01-25T06:43:59;101400.78;;;23.74;38.84
75936;BME280;64614;32.062;34.834;2023-01-25T06:46:24;101395.56;;;23.73;38.67
75936;BME280;64614;32.062;34.834;2023-01-25T06:48:50;101409.19;;;23.45;39.88
75936;BME280;64614;32.062;34.834;2023-01-25T06:51:17;101403.50;;;23.41;39.08
75936;BME280;64614;32.062;34.834;2023-01-25T06:53:44;101404.28;;;23.28;38.86
75936;BME280;64614;32.062;34.834;2023-01-25T06:56:13;101402.78;;;23.16;39.02
75936;BME280;64614;32.062;34.834;2023-01-25T06:58:39;101399.50;;;23.14;39.27
75936;BME280;64614;32.062;34.834;2023-01-25T07:01:17;101401.22;;;23.10;39.33
75936;BME280;64614;32.062;34.834;2023-01-25T07:03:48;101402.44;;;23.04;39.65
75936;BME280;64614;32.062;34.834;2023-01-25T07:06:14;101395.31;;;23.03;39.41
75936;BME280;64614;32.062;34.834;2023-01-25T07:08:39;101404.13;;;23.00;39.45
75936;BME280;64614;32.062;34.834;2023-01-25T07:11:07;101409.00;;;23.03;39.75
75936;BME280;64614;32.062;34.834;2023-01-25T07:13:36;101401.59;;;23.04;39.26
75936;BME280;64614;32.062;34.834;2023-01-25T07:16:06;101402.34;;;23.09;39.41
75936;BME280;64614;32.062;34.834;2023-01-25T07:18:33;101411.66;;;23.08;39.63
75936;BME280;64614;32.062;34.834;2023-01-25T07:21:24;101414.72;;;23.07;39.86
75936;BME280;64614;32.062;34.834;2023-01-25T07:23:51;101421.22;;;23.11;39.81
75936;BME280;64614;32.062;34.834;2023-01-25T07:26:24;101425.88;;;23.10;39.84
75936;BME280;64614;32.062;34.834;2023-01-25T07:28:51;101422.84;;;23.12;39.31
75936;BME280;64614;32.062;34.834;2023-01-25T07:31:17;101418.47;;;23.11;39.45
75936;BME280;64614;32.062;34.834;2023-01-25T07:33:47;101420.56;;;23.00;38.53
75936;BME280;64614;32.062;34.834;2023-01-25T07:36:13;101421.09;;;23.02;38.43
75936;BME280;64614;32.062;34.834;2023-01-25T07:38:39;101409.75;;;22.90;38.76
75936;BME280;64614;32.062;34.834;2023-01-25T07:41:04;101424.41;;;22.99;38.06
75936;BME280;64614;32.062;34.834;2023-01-25T07:43:31;101420.19;;;23.07;38.67
75936;BME280;64614;32.062;34.834;2023-01-25T07:46:04;101419.00;;;23.13;39.45
75936;BME280;64614;32.062;34.834;2023-01-25T07:48:30;101409.50;;;23.05;37.94
75936;BME280;64614;32.062;34.834;2023-01-25T07:51:01;101412.09;;;23.15;38.86
75936;BME280;64614;32.062;34.834;2023-01-25T07:53:40;101413.22;;;23.14;38.58
75936;BME280;64614;32.062;34.834;2023-01-25T07:56:07;101415.09;;;23.19;37.70
75936;BME280;64614;32.062;34.834;2023-01-25T07:58:33;101414.72;;;23.26;38.61
75936;BME280;64614;32.062;34.834;2023-01-25T08:01:11;101412.34;;;23.38;39.11
75936;BME280;64614;32.062;34.834;2023-01-25T08:03:37;101413.25;;;23.34;38.59
75936;BME280;64614;32.062;34.834;2023-01-25T08:06:03;101412.41;;;23.33;39.11
75936;BME280;64614;32.062;34.834;2023-01-25T08:08:33;101408.56;;;23.34;38.69
75936;BME280;64614;32.062;34.834;2023-01-25T08:11:05;101411.34;;;23.48;37.35
75936;BME280;64614;32.062;34.834;2023-01-25T08:13:33;101400.34;;;23.34;36.00
75936;BME280;64614;32.062;34.834;2023-01-25T08:15:58;101403.16;;;23.29;36.48
75936;BME280;64614;32.062;34.834;2023-01-25T08:18:24;101403.28;;;23.57;37.07
75936;BME280;64614;32.062;34.834;2023-01-25T08:20:50;101397.50;;;23.72;38.22
75936;BME280;64614;32.062;34.834;2023-01-25T08:23:15;101394.19;;;23.75;38.38
75936;BME280;64614;32.062;34.834;2023-01-25T08:25:41;101401.03;;;23.59;40.15
75936;BME280;64614;32.062;34.834;2023-01-25T08:28:07;101390.25;;;23.62;40.12
75936;BME280;64614;32.062;34.834;2023-01-25T08:30:33;101382.88;;;23.63;39.93
75936;BME280;64614;32.062;34.834;2023-01-25T08:32:59;101379.28;;;23.62;40.24
75936;BME280;64614;32.062;34.834;2023-01-25T08:35:24;101369.38;;;23.67;40.22
75936;BME280;64614;32.062;34.834;2023-01-25T08:37:50;101376.78;;;23.66;40.98
75936;BME280;64614;32.062;34.834;2023-01-25T08:40:16;101374.13;;;23.61;41.18
75936;BME280;64614;32.062;34.834;2023-01-25T08:42:41;101362.03;;;23.62;41.15
75936;BME280;64614;32.062;34.834;2023-01-25T08:45:11;101361.53;;;23.60;41.18
75936;BME280;64614;32.062;34.834;2023-01-25T08:47:36;101362.16;;;23.57;41.14
75936;BME280;64614;32.062;34.834;2023-01-25T08:50:02;101364.28;;;23.60;41.58
75936;BME280;64614;32.062;34.834;2023-01-25T08:52:28;101366.81;;;23.56;41.99
75936;BME280;64614;32.062;34.834;2023-01-25T08:54:54;101356.56;;;23.62;42.21
75936;BME280;64614;32.062;34.834;2023-01-25T08:57:19;101355.44;;;23.63;42.39
75936;BME280;64614;32.062;34.834;2023-01-25T08:59:45;101360.34;;;23.66;42.16
75936;BME280;64614;32.062;34.834;2023-01-25T09:02:12;101362.25;;;23.66;41.90
75936;BME280;64614;32.062;34.834;2023-01-25T09:04:37;101344.69;;;23.67;42.52
75936;BME280;64614;32.062;34.834;2023-01-25T09:07:03;101345.19;;;23.69;42.21
75936;BME280;64614;32.062;34.834;2023-01-25T09:09:30;101332.00;;;23.71;42.59
75936;BME280;64614;32.062;34.834;2023-01-25T09:11:57;101333.72;;;23.67;42.69
75936;BME280;64614;32.062;34.834;2023-01-25T09:14:23;101336.16;;;23.68;42.21
75936;BME280;64614;32.062;34.834;2023-01-25T09:16:48;101325.69;;;23.70;42.76
75936;BME280;64614;32.062;34.834;2023-01-25T09:19:14;101328.97;;;23.72;42.06
75936;BME280;64614;32.062;34.834;2023-01-25T09:21:40;101320.53;;;23.69;42.33
75936;BME280;64614;32.062;34.834;2023-01-25T09:24:06;101319.81;;;23.77;41.95
75936;BME280;64614;32.062;34.834;2023-01-25T09:26:33;101320.34;;;23.79;41.99
75936;BME280;64614;32.062;34.834;2023-01-25T09:28:58;101304.47;;;23.76;42.34
75936;BME280;64614;32.062;34.834;2023-01-25T09:31:25;101318.91;;;23.82;42.40
75936;BME280;64614;32.062;34.834;2023-01-25T09:33:51;101303.25;;;23.82;42.03
75936;BME280;64614;32.062;34.834;2023-01-25T09:36:17;101311.78;;;23.81;42.32
75936;BME280;64614;32.062;34.834;2023-01-25T09:38:43;101296.13;;;23.81;42.37
75936;BME280;64614;32.062;34.834;2023-01-25T09:41:17;101307.31;;;23.85;42.41
75936;BME280;64614;32.062;34.834;2023-01-25T09:46:50;101294.53;;;23.80;43.10
75936;BME280;64614;32.062;34.834;2023-01-25T09:55:12;101274.50;;;23.79;43.41
75936;BME280;64614;32.062;34.834;2023-01-25T09:57:40;101278.09;;;23.80;43.23
75936;BME280;64614;32.062;34.834;2023-01-25T10:00:16;101270.06;;;23.84;43.66
75936;BME280;64614;32.062;34.834;2023-01-25T10:05:20;101275.81;;;23.82;43.52
75936;BME280;64614;32.062;34.834;2023-01-25T10:08:01;101266.47;;;23.83;44.23
75936;BME280;64614;32.062;34.834;2023-01-25T10:10:38;101257.44;;;23.83;43.96
75936;BME280;64614;32.062;34.834;2023-01-25T10:13:15;101269.13;;;23.74;42.74
75936;BME280;64614;32.062;34.834;2023-01-25T10:15:51;101268.72;;;23.95;43.74
75936;BME280;64614;32.062;34.834;2023-01-25T10:23:20;101265.88;;;23.86;44.38
75936;BME280;64614;32.062;34.834;2023-01-25T10:26:28;101254.59;;;23.88;43.95
75936;BME280;64614;32.062;34.834;2023-01-25T10:31:49;101244.22;;;23.85;44.09
75936;BME280;64614;32.062;34.834;2023-01-25T10:34:21;101248.31;;;23.87;44.26
75936;BME280;64614;32.062;34.834;2023-01-25T10:36:56;101243.94;;;23.86;43.93
75936;BME280;64614;32.062;34.834;2023-01-25T10:39:27;101239.25;;;23.87;44.21
75936;BME280;64614;32.062;34.834;2023-01-25T10:42:06;101229.31;;;23.91;44.32
75936;BME280;64614;32.062;34.834;2023-01-25T10:44:33;101238.66;;;23.90;44.17
75936;BME280;64614;32.062;34.834;2023-01-25T10:47:06;101213.25;;;23.84;44.64
75936;BME280;64614;32.062;34.834;2023-01-25T10:49:50;101220.56;;;23.89;44.00
75936;BME280;64614;32.062;34.834;2023-01-25T10:52:23;101219.75;;;23.88;44.33
75936;BME280;64614;32.062;34.834;2023-01-25T10:55:20;101226.84;;;23.89;43.92
75936;BME280;64614;32.062;34.834;2023-01-25T10:57:55;101216.31;;;23.83;44.14
75936;BME280;64614;32.062;34.834;2023-01-25T11:29:18;101206.25;;;23.92;44.20
75936;BME280;64614;32.062;34.834;2023-01-25T11:31:48;101209.28;;;23.90;43.86
75936;BME280;64614;32.062;34.834;2023-01-25T11:34:17;101209.28;;;23.90;44.64
75936;BME280;64614;32.062;34.834;2023-01-25T11:37:05;101201.78;;;23.96;44.49
75936;BME280;64614;32.062;34.834;2023-01-25T11:39:45;101200.97;;;23.96;44.25
75936;BME280;64614;32.062;34.834;2023-01-25T12:01:51;101202.69;;;24.05;45.23
75936;BME280;64614;32.062;34.834;2023-01-25T12:08:02;101204.81;;;24.08;45.03
75936;BME280;64614;32.062;34.834;2023-01-25T12:16:33;101208.53;;;24.13;44.45
75936;BME280;64614;32.062;34.834;2023-01-25T12:19:16;101216.72;;;24.04;45.06
75936;BME280;64614;32.062;34.834;2023-01-25T12:30:24;101216.81;;;23.99;45.25
75936;BME280;64614;32.062;34.834;2023-01-25T12:32:56;101222.00;;;24.00;45.17
75936;BME280;64614;32.062;34.834;2023-01-25T12:35:33;101216.41;;;24.05;44.64
75936;BME280;64614;32.062;34.834;2023-01-25T12:38:07;101209.78;;;24.06;44.62
75936;BME280;64614;32.062;34.834;2023-01-25T12:40:59;101208.16;;;24.05;44.54
75936;BME280;64614;32.062;34.834;2023-01-25T12:46:15;101192.72;;;24.09;44.97
75936;BME280;64614;32.062;34.834;2023-01-25T12:48:49;101201.25;;;24.08;45.14
75936;BME280;64614;32.062;34.834;2023-01-25T12:51:19;101207.25;;;24.10;44.96
75936;BME280;64614;32.062;34.834;2023-01-25T12:53:46;101200.94;;;24.09;45.07
75936;BME280;64614;32.062;34.834;2023-01-25T12:56:34;101199.84;;;24.11;44.90
75936;BME280;64614;32.062;34.834;2023-01-25T12:59:29;101199.03;;;23.96;45.03
75936;BME280;64614;32.062;34.834;2023-01-25T13:02:07;101196.59;;;23.94;45.32
75936;BME280;64614;32.062;34.834;2023-01-25T13:04:49;101200.44;;;23.93;44.50
75936;BME280;64614;32.062;34.834;2023-01-25T13:07:52;101211.03;;;23.86;41.74
75936;BME280;64614;32.062;34.834;2023-01-25T13:10:32;101206.66;;;23.71;41.05
75936;BME280;64614;32.062;34.834;2023-01-25T13:13:19;101210.44;;;23.75;41.75
75936;BME280;64614;32.062;34.834;2023-01-25T13:15:46;101219.28;;;23.58;42.70
75936;BME280;64614;32.062;34.834;2023-01-25T13:21:00;101209.31;;;23.49;41.99
75936;BME280;64614;32.062;34.834;2023-01-25T13:23:34;101215.91;;;23.47;41.27
75936;BME280;64614;32.062;34.834;2023-01-25T13:28:50;101209.31;;;23.49;41.19
75936;BME280;64614;32.062;34.834;2023-01-25T13:37:14;101217.03;;;23.74;42.67
75936;BME280;64614;32.062;34.834;2023-01-25T13:44:40;101219.53;;;23.85;42.40
75936;BME280;64614;32.062;34.834;2023-01-25T13:47:10;101217.31;;;23.87;42.23
75936;BME280;64614;32.062;34.834;2023-01-25T13:49:43;101225.25;;;23.88;42.80
75936;BME280;64614;32.062;34.834;2023-01-25T13:52:16;101228.28;;;23.87;42.90
75936;BME280;64614;32.062;34.834;2023-01-25T13:54:44;101223.91;;;23.86;42.80
75936;BME280;64614;32.062;34.834;2023-01-25T13:57:22;101226.97;;;23.84;43.14
75936;BME280;64614;32.062;34.834;2023-01-25T14:00:03;101229.91;;;23.88;43.10
75936;BME280;64614;32.062;34.834;2023-01-25T14:02:29;101235.91;;;23.90;43.25
75936;BME280;64614;32.062;34.834;2023-01-25T14:04:57;101229.31;;;23.91;43.77
75936;BME280;64614;32.062;34.834;2023-01-25T14:07:30;101229.50;;;22.92;44.38
75936;BME280;64614;32.062;34.834;2023-01-25T14:09:59;101229.16;;;23.12;44.16
75936;BME280;64614;32.062;34.834;2023-01-25T14:12:42;101236.94;;;23.38;43.19
75936;BME280;64614;32.062;34.834;2023-01-25T14:18:11;101249.94;;;23.46;42.98
75936;BME280;64614;32.062;34.834;2023-01-25T14:20:42;101236.63;;;23.40;42.91
75936;BME280;64614;32.062;34.834;2023-01-25T14:23:28;101236.03;;;23.43;42.68
75936;BME280;64614;32.062;34.834;2023-01-25T14:25:55;101243.72;;;23.41;42.79
75936;BME280;64614;32.062;34.834;2023-01-25T14:28:24;101240.41;;;23.44;43.18
75936;BME280;64614;32.062;34.834;2023-01-25T14:30:52;101243.94;;;23.44;43.03
75936;BME280;64614;32.062;34.834;2023-01-25T14:33:28;101242.63;;;23.42;43.27
75936;BME280;64614;32.062;34.834;2023-01-25T14:36:02;101254.81;;;23.36;42.56
75936;BME280;64614;32.062;34.834;2023-01-25T14:38:33;101253.56;;;23.28;42.59
75936;BME280;64614;32.062;34.834;2023-01-25T14:43:31;101263.28;;;23.20;42.64
75936;BME280;64614;32.062;34.834;2023-01-25T14:45:57;101253.94;;;23.21;42.99
75936;BME280;64614;32.062;34.834;2023-01-25T14:48:41;101253.16;;;23.21;42.69
75936;BME280;64614;32.062;34.834;2023-01-25T14:51:14;101257.50;;;23.22;42.73
75936;BME280;64614;32.062;34.834;2023-01-25T14:53:45;101263.00;;;23.22;42.83
75936;BME280;64614;32.062;34.834;2023-01-25T14:58:55;101265.78;;;23.16;42.70
75936;BME280;64614;32.062;34.834;2023-01-25T15:01:39;101264.16;;;23.15;42.90
75936;BME280;64614;32.062;34.834;2023-01-25T15:04:10;101268.00;;;23.14;42.36
75936;BME280;64614;32.062;34.834;2023-01-25T15:06:47;101261.81;;;23.09;42.61